Portada
METAR-TAF:

METAR-TAF

Aeropuertos :

Aeropuerto Internacional de Kunming-Changshui

Kunming, China

latitud: 25-01N, longitud: 102-41E, altitud: 1892 m

Observación

El informe se hizo hace 34 minutos, a las 01:00 UTC
Viento 10 kt del sur-suroeste
Temperatura 19°C
Humedad 88%
Presión 1017 hPa
Visibilidad 10 km o más
Nubes dispersas a una altura de 2000 ft
Cielo nuboso a una altura de 3600 ft

METAR: ZPPP 220100Z 21005MPS 9999 SCT020 BKN036 19/17 Q1017 NOSIG

Hora: 09:34 (01:34 UTC)

Pronóstico

El informe se hizo hace 6 horas y 22 minutos, a las 19:12 UTC
Pronóstico válido del 22 a las 00 UTC al 22 a las 24 UTC
Viento 12 kt del sur-suroeste
Visibilidad 10 km o más
Nubes dispersas a una altura de 2000 ft
Cielo nuboso a una altura de 3600 ft

TAF: ZPPP 211912Z 2200/2224 21006MPS 9999 SCT020 BKN036 TX25/2208Z TN17/2223Z

Observaciones y pronósticos meteorológicos de más de 4000 aeropuertos (mensajes METAR y TAF).

Los puntos amarillos y rojos representan las estaciones disponibles.

Ponga el ratón en el punto deseado para ver el nombre de la estación.

Haga clic para ver las observaciones y los pronósticos meteorológicos.

Para cambiar el mapa : haga clic en los botones verdes con una cruz de color negro para hacer un zoom, en el botón verde con un guión para alejar o en las flechas verdes para mapas adyacentes.


METAR-TAF: